Главная страница
METAR-TAF:

METAR-TAF

Аэропорты :

Рабат, Марокко

широта: 34-03N, долгота: 006-46W, высота над уровнем моря: 84 м

Текущие метеонаблюдения

Эта сводка был подготовлена 39 минут назад, в 03:00 UTC
Штиль
Температура 18°C
Влажность 88%
Давление 1017 hPa
Видимость 10 км и более
Рассеянная облачность на высоте 1600 фута

METAR: GMME 150300Z 00000KT 9999 BKN016 18/16 Q1017 NOSIG

Время: 04:39 (03:39 UTC)

Прогноз

Эта сводка был подготовлена 4 часа и 39 минут назад, в 23:00 UTC
Прогноз действительный с 15-го 00 UTC до 16-го 06 UTC
Ветер 10 Узел от северно-северо-западный
Видимость: 8000 м
Отдельные облака на высоте 1500 фута
временами
С 15-го 00 UTC до 15-го 06 UTC
Ветер 2 Узел переменных направлений

TAF: GMME 142300Z 1500/1606 34010KT 8000 SCT015 TEMPO 1500/1506 VRB02KT

Метеонаблюдения и прогнозы для более 4000 аэропортов (сводки METAR и TAF).

Имеющиеся станции представлены на карте желтыми и красными точками.

Чтобы увидеть название станции, наведите на нее мышь.

Затем щелкните, чтобы увидеть метеонаблюдения и метеопрогнозы.

Управление картой: чтобы увеличить масштаб, щелкните зеленые кнопки с черным крестиком; чтобы уменьшить масштаб, щелкните зеленую кнопку с тире; для просмотра соседних карт щелкайте зеленые стрелки.


METAR-TAF: